aviador You're here:

KAAF Decoded Metar

APALACHICOLA in FL, USA
Report Time2017-08-24 00:53:00
UTC Time2017-08-24 01:11:04
Flight Rules vfr VFR
Wind260° at 04 kt
W.Decomp.*RWY 24: 3.7 kt HW 1.6 kt RCW
RWY 32: 2.2 kt HW 3.4 kt LCW
RWY 18: 0.5 kt HW 4.0 kt RCW
W.Rank260° ranks 27
Current wind is below 260° avg. (8.3)
Visibility9999 m
Phenomena:N/A
Clouds:N/A
Expected CloudBase > 2,000 ft AGL from Temp-Dew spread
CeilingNone
Temp29°C (ISA +14)
Dew Point24°C (74% RH)
Heat Index33.5°C
QNH1012 hPa
Density Alt2,051 ft
Elevation16 ft
Report Wrong Elevation
Raw Report
METAR KAAF 240053Z AUTO 26004KT 10SM CLR 29/24 A2987 RMK AO2 SLP116
T02890244=

Extra information for KAAF:More info

Metar Taf Metar & Taf Last 4 Metars F.Rules Stats Wind Profile Meteogram Temp Stats Airport Information Weather charts Add Link Nearby VenuesMetar ALERT Operation Metar Decoded Social comments

AIRNAV info for KAAF